KACV/ACV METAR and TAF weather

Enter ICAO airport designator
Station Type Date Time Source
KACV METAR 2019/10/18 05:53 UTC NOAA

KACV 180553Z AUTO 13008KT 10SM BKN030 BKN055 OVC080 14/08 A3002 RMK AO2 SLP170 T01390083 10150 20117 56004


Station Type Date Time Source
KACV Decoded METAR 2019/10/18 05:53 UTC NOAA

ARCATA/EUREKA ARCATA AIRPORT, CA, United States (KACV) 40-59N 124-06W 67M
Oct 18, 2019 - 01:53 AM EDT / 2019.10.18 0553 UTC
Wind: from the SE (130 degrees) at 9 MPH (8 KT):0
Visibility: 10 mile(s):0
Sky conditions: overcast
Temperature: 57.0 F (13.9 C)
Dew Point: 46.9 F (8.3 C)
Relative Humidity: 68%
Pressure (altimeter): 30.02 in. Hg (1016 hPa)
Pressure tendency: 0.01 inches (0.4 hPa) lower than three hours ago
ob: KACV 180553Z AUTO 13008KT 10SM BKN030 BKN055 OVC080 14/08 A3002 RMK AO2 SLP170 T01390083 10150 20117 56004
cycle: 6

Station Type Date Time Source
KACV TAF 2019/10/18 06:42 UTC NOAA

TAF KACV 180539Z 1806/1906 14009KT P6SM -SHRA SCT030 BKN050 BKN100
TEMPO 1807/1810 5SM BR BKN030
FM181200 VRB03KT 3SM -RA BR OVC015
FM181500 VRB03KT P6SM SCT015 OVC025
FM182100 29008KT P6SM FEW030 SCT050 BKN250
FM190300 14006KT 3SM BR VCSH OVC050

Example: see airport list